createdAt,value
2022-09-16T00:01:13.467Z,20.92
2022-09-16T00:03:41.724Z,20.83
2022-09-16T00:06:20.433Z,20.83
2022-09-16T00:08:49.201Z,20.89
2022-09-16T00:11:17.398Z,20.82
2022-09-16T00:13:45.278Z,20.72
2022-09-16T00:16:18.056Z,20.75
2022-09-16T00:18:45.445Z,20.77
2022-09-16T00:21:13.357Z,20.57
2022-09-16T00:23:40.656Z,20.71
2022-09-16T00:26:08.491Z,20.73
2022-09-16T00:28:36.024Z,20.62
2022-09-16T00:31:04.078Z,20.63
2022-09-16T00:33:31.824Z,20.60
2022-09-16T00:36:19.677Z,20.55
2022-09-16T00:38:51.178Z,20.55
2022-09-16T00:41:22.249Z,20.57
2022-09-16T00:43:58.765Z,20.56
2022-09-16T00:46:33.488Z,20.49
2022-09-16T00:49:03.763Z,20.28
2022-09-16T00:51:31.497Z,20.25
2022-09-16T00:54:03.166Z,20.13
2022-09-16T00:56:34.874Z,20.13
2022-09-16T00:59:09.809Z,20.08
2022-09-16T01:01:38.131Z,19.98
2022-09-16T01:04:45.402Z,20.06
2022-09-16T01:07:13.712Z,19.71
2022-09-16T01:09:41.773Z,19.48
2022-09-16T01:12:09.077Z,19.73
2022-09-16T01:14:54.964Z,19.64
2022-09-16T01:17:40.205Z,19.62
2022-09-16T01:20:38.664Z,19.62
2022-09-16T01:23:36.929Z,19.57
2022-09-16T01:26:35.442Z,19.66
2022-09-16T01:29:44.198Z,19.74
2022-09-16T01:32:20.889Z,19.66
2022-09-16T01:34:57.307Z,19.68
2022-09-16T01:37:33.759Z,19.53
2022-09-16T01:40:24.104Z,19.48
2022-09-16T01:43:04.061Z,19.45
2022-09-16T01:45:39.637Z,19.34
2022-09-16T01:48:36.896Z,19.39
2022-09-16T01:51:06.143Z,19.43
2022-09-16T01:53:47.665Z,19.15
2022-09-16T01:56:23.114Z,19.36
2022-09-16T01:58:56.428Z,19.26
2022-09-16T02:01:34.232Z,19.34
2022-09-16T02:04:10.399Z,19.36
2022-09-16T02:06:39.596Z,19.40
2022-09-16T02:09:29.137Z,19.51
2022-09-16T02:11:59.007Z,19.50
2022-09-16T02:14:30.710Z,19.58
2022-09-16T02:17:03.794Z,19.56
2022-09-16T02:19:39.901Z,19.58
2022-09-16T02:22:16.792Z,19.68
2022-09-16T02:24:46.920Z,19.71
2022-09-16T02:27:19.973Z,19.67
2022-09-16T02:29:56.624Z,19.68
2022-09-16T02:32:26.178Z,19.69
2022-09-16T02:34:54.619Z,19.69
2022-09-16T02:37:26.629Z,19.69
2022-09-16T02:39:57.841Z,19.70
2022-09-16T02:42:25.449Z,19.68
2022-09-16T02:44:53.163Z,19.67
2022-09-16T02:47:26.716Z,19.65
2022-09-16T02:49:59.832Z,19.68
2022-09-16T02:52:57.403Z,19.64
2022-09-16T02:55:46.536Z,19.60
2022-09-16T02:58:14.144Z,19.58
2022-09-16T03:00:46.587Z,19.61
2022-09-16T03:03:14.517Z,19.53
2022-09-16T03:06:04.042Z,19.56
2022-09-16T03:08:32.544Z,19.64
2022-09-16T03:11:31.024Z,19.48
2022-09-16T03:14:19.212Z,19.48
2022-09-16T03:17:20.500Z,19.61
2022-09-16T03:20:07.404Z,19.56
2022-09-16T03:22:53.868Z,19.42
2022-09-16T03:25:43.316Z,19.44
2022-09-16T03:28:15.981Z,19.52
2022-09-16T03:30:50.082Z,19.45
2022-09-16T03:33:34.487Z,19.49
2022-09-16T03:36:05.233Z,19.43
2022-09-16T03:38:34.420Z,19.48
2022-09-16T03:41:06.498Z,19.36
2022-09-16T03:43:34.027Z,19.40
2022-09-16T03:46:01.748Z,19.42
2022-09-16T03:48:29.107Z,19.43
2022-09-16T03:51:02.597Z,19.42
2022-09-16T03:53:30.991Z,19.52
2022-09-16T03:55:58.268Z,19.39
2022-09-16T03:58:25.580Z,19.42
2022-09-16T04:00:53.919Z,19.41
2022-09-16T04:03:21.468Z,19.36
2022-09-16T04:05:55.339Z,19.43
2022-09-16T04:08:23.557Z,19.50
2022-09-16T04:10:59.353Z,19.42
2022-09-16T04:13:29.667Z,19.47
2022-09-16T04:15:57.128Z,19.38
2022-09-16T04:18:24.484Z,19.41
2022-09-16T04:20:59.851Z,19.43
2022-09-16T04:23:28.239Z,19.42
2022-09-16T04:26:02.374Z,19.40
2022-09-16T04:28:31.111Z,19.49
2022-09-16T04:31:03.073Z,19.40
2022-09-16T04:33:31.506Z,19.48
2022-09-16T04:36:16.750Z,19.44
2022-09-16T04:38:45.458Z,19.39
2022-09-16T04:41:26.095Z,19.40
2022-09-16T04:43:56.207Z,19.23
2022-09-16T04:46:25.326Z,19.34
2022-09-16T04:48:54.102Z,19.38
2022-09-16T04:51:22.499Z,19.31
2022-09-16T04:53:50.540Z,19.29
2022-09-16T04:56:20.415Z,19.33
2022-09-16T04:58:50.083Z,19.33
2022-09-16T05:01:19.948Z,19.32
2022-09-16T05:03:50.473Z,19.48
2022-09-16T05:06:20.947Z,19.43
2022-09-16T05:08:49.515Z,19.36
2022-09-16T05:11:20.084Z,19.36
2022-09-16T05:13:47.693Z,19.43
2022-09-16T05:16:17.293Z,19.39
2022-09-16T05:18:46.323Z,19.51
2022-09-16T05:21:15.874Z,19.47
2022-09-16T05:23:46.699Z,19.50
2022-09-16T05:26:16.687Z,19.48
2022-09-16T05:28:43.972Z,19.48
2022-09-16T05:31:16.323Z,19.47
2022-09-16T05:33:46.069Z,19.57
2022-09-16T05:36:17.888Z,19.53
2022-09-16T05:39:04.763Z,19.56
2022-09-16T05:41:32.982Z,19.62
2022-09-16T05:44:01.331Z,19.75
2022-09-16T05:46:29.025Z,19.61
2022-09-16T05:48:56.666Z,19.64
2022-09-16T05:51:25.734Z,19.76
2022-09-16T05:53:53.698Z,19.73
2022-09-16T05:56:25.685Z,19.75
2022-09-16T05:58:54.649Z,19.77
2022-09-16T06:01:27.754Z,19.88
2022-09-16T06:03:55.407Z,19.88
2022-09-16T06:06:29.829Z,19.95
2022-09-16T06:08:59.665Z,19.86
2022-09-16T06:11:28.358Z,19.87
2022-09-16T06:14:01.465Z,19.94
2022-09-16T06:16:32.898Z,19.90
2022-09-16T06:19:02.014Z,19.93
2022-09-16T06:21:29.985Z,19.95
2022-09-16T06:23:57.835Z,19.91
2022-09-16T06:26:26.574Z,19.99
2022-09-16T06:28:54.747Z,19.97
2022-09-16T06:31:24.373Z,19.96
2022-09-16T06:33:52.836Z,20.03
2022-09-16T06:36:28.103Z,20.03
2022-09-16T06:38:55.709Z,20.01
2022-09-16T06:41:24.105Z,19.96
2022-09-16T06:43:51.998Z,20.07
2022-09-16T06:46:22.910Z,19.93
2022-09-16T06:48:52.655Z,19.77
2022-09-16T06:51:22.818Z,19.87
2022-09-16T06:53:51.280Z,20.00
2022-09-16T06:56:20.445Z,20.04
2022-09-16T06:58:55.625Z,20.02
2022-09-16T07:01:28.414Z,20.19
2022-09-16T07:03:57.577Z,20.20
2022-09-16T07:06:49.549Z,20.18
2022-09-16T07:09:15.276Z,20.24
2022-09-16T07:11:42.836Z,20.25
2022-09-16T07:14:10.237Z,20.37
2022-09-16T07:16:37.646Z,20.37
2022-09-16T07:19:05.331Z,20.36
2022-09-16T07:21:32.942Z,20.35
2022-09-16T07:24:02.557Z,20.41
2022-09-16T07:26:32.331Z,20.59
2022-09-16T07:29:01.234Z,20.42
2022-09-16T07:31:31.053Z,20.35
2022-09-16T07:34:04.035Z,20.26
2022-09-16T07:36:38.094Z,20.41
2022-09-16T07:39:06.302Z,20.37
2022-09-16T07:41:36.597Z,20.50
2022-09-16T07:44:05.401Z,20.48
2022-09-16T07:46:34.915Z,20.50
2022-09-16T07:49:06.413Z,20.52
2022-09-16T07:51:35.030Z,20.65
2022-09-16T07:54:07.473Z,20.61
2022-09-16T07:57:01.323Z,20.48
2022-09-16T07:59:28.656Z,20.44
2022-09-16T08:01:56.374Z,20.42
2022-09-16T08:04:23.984Z,20.53
2022-09-16T08:06:51.417Z,20.53
2022-09-16T08:12:07.949Z,20.49
2022-09-16T08:14:35.383Z,20.41
2022-09-16T08:17:03.387Z,20.41
2022-09-16T08:19:30.983Z,20.41
2022-09-16T08:21:58.291Z,20.47
2022-09-16T08:24:25.599Z,20.54
2022-09-16T08:26:53.767Z,20.48
2022-09-16T08:29:22.485Z,20.47
2022-09-16T08:31:49.830Z,20.43
2022-09-16T08:34:17.699Z,20.58
2022-09-16T08:36:45.003Z,20.60
2022-09-16T08:39:12.274Z,20.56
2022-09-16T08:41:52.534Z,20.61
2022-09-16T08:44:34.648Z,20.61
2022-09-16T08:47:06.305Z,20.52
2022-09-16T08:49:46.571Z,20.57
2022-09-16T08:52:33.481Z,20.57
2022-09-16T08:55:08.193Z,20.60
2022-09-16T08:57:43.082Z,20.48
2022-09-16T09:00:16.748Z,20.35
2022-09-16T09:03:14.721Z,20.32
2022-09-16T09:05:53.620Z,20.49
2022-09-16T09:08:43.264Z,20.46
2022-09-16T09:11:17.436Z,20.55
2022-09-16T09:13:54.353Z,20.48
2022-09-16T09:16:31.152Z,20.42
2022-09-16T09:19:28.651Z,20.49
2022-09-16T09:22:22.304Z,20.54
2022-09-16T09:25:21.949Z,20.55
2022-09-16T09:27:58.985Z,20.58
2022-09-16T09:30:28.047Z,20.61
2022-09-16T09:33:45.011Z,20.62
2022-09-16T09:36:31.412Z,20.58
2022-09-16T09:39:02.619Z,20.58
2022-09-16T09:41:34.040Z,20.56
2022-09-16T09:44:35.278Z,20.61
2022-09-16T09:47:08.197Z,20.72
2022-09-16T09:49:48.122Z,20.81
2022-09-16T09:52:33.963Z,20.82
2022-09-16T09:55:16.164Z,21.05
2022-09-16T09:58:27.218Z,21.01
2022-09-16T10:00:57.672Z,21.11
2022-09-16T10:03:27.043Z,21.23
2022-09-16T10:05:54.713Z,21.42
2022-09-16T10:08:43.702Z,21.45
2022-09-16T10:11:26.307Z,21.48
2022-09-16T10:13:55.363Z,21.44
2022-09-16T10:16:26.825Z,21.43
2022-09-16T10:19:07.043Z,21.57
2022-09-16T10:21:46.955Z,21.49
2022-09-16T10:24:35.263Z,21.62
2022-09-16T10:27:20.978Z,21.48
2022-09-16T10:29:48.978Z,21.60
2022-09-16T10:32:18.375Z,21.53
2022-09-16T10:34:46.619Z,21.39
2022-09-16T10:37:13.843Z,21.52
2022-09-16T10:39:45.071Z,21.47
2022-09-16T10:42:30.797Z,21.44
2022-09-16T10:45:04.869Z,21.43
2022-09-16T10:47:33.888Z,21.45
2022-09-16T10:50:06.595Z,21.46
2022-09-16T10:52:45.335Z,21.43
2022-09-16T10:55:27.167Z,21.38
2022-09-16T10:58:07.628Z,21.34
2022-09-16T11:00:58.238Z,21.36
2022-09-16T11:03:50.079Z,21.40
2022-09-16T11:06:20.432Z,21.40
2022-09-16T11:09:11.240Z,21.59
2022-09-16T11:11:54.388Z,21.56
2022-09-16T11:14:33.951Z,21.46
2022-09-16T11:17:38.685Z,21.82
2022-09-16T11:20:18.051Z,21.88
2022-09-16T11:22:54.793Z,21.68
2022-09-16T11:25:40.768Z,21.78
2022-09-16T11:28:27.076Z,21.67
2022-09-16T11:31:00.160Z,21.71
2022-09-16T11:33:42.084Z,21.69
2022-09-16T11:36:16.497Z,21.94
2022-09-16T11:39:05.979Z,22.20
2022-09-16T11:41:50.221Z,22.52
2022-09-16T11:44:32.979Z,22.59
2022-09-16T11:47:16.388Z,22.60
2022-09-16T11:50:16.037Z,22.61
2022-09-16T11:53:05.356Z,22.49
2022-09-16T11:55:39.412Z,22.43
2022-09-16T11:58:32.240Z,22.52
2022-09-16T12:01:05.988Z,22.56
2022-09-16T12:03:49.688Z,22.65
2022-09-16T12:06:23.963Z,22.81
2022-09-16T12:09:01.086Z,22.69
2022-09-16T12:11:36.531Z,22.75
2022-09-16T12:14:09.352Z,22.74
2022-09-16T12:16:45.415Z,22.67
2022-09-16T12:19:21.100Z,22.75
2022-09-16T12:22:01.256Z,22.72
2022-09-16T12:24:56.053Z,22.74
2022-09-16T12:27:34.739Z,22.80
2022-09-16T12:30:04.323Z,22.62
2022-09-16T12:33:09.225Z,22.72
2022-09-16T12:35:39.821Z,22.80
2022-09-16T12:38:17.400Z,22.79
2022-09-16T12:41:03.897Z,22.85
2022-09-16T12:43:59.025Z,22.74
2022-09-16T12:46:44.786Z,22.53
2022-09-16T12:49:44.349Z,22.51
2022-09-16T12:52:46.103Z,22.50
2022-09-16T12:55:40.628Z,22.55
2022-09-16T12:58:38.872Z,22.85
2022-09-16T13:01:06.048Z,22.68
2022-09-16T13:06:13.618Z,22.55
2022-09-16T13:08:41.224Z,22.63
2022-09-16T13:14:22.135Z,22.54
2022-09-16T13:16:55.735Z,22.55
2022-09-16T13:19:39.692Z,22.59
2022-09-16T13:22:24.555Z,22.59
2022-09-16T13:25:09.259Z,22.61
2022-09-16T13:27:40.884Z,22.71
2022-09-16T13:30:08.336Z,22.48
2022-09-16T13:32:50.474Z,22.64
2022-09-16T13:35:18.107Z,22.72
2022-09-16T13:37:46.745Z,22.78
2022-09-16T13:40:26.772Z,22.89
2022-09-16T13:43:30.729Z,22.84
2022-09-16T13:46:08.876Z,22.84
2022-09-16T13:48:47.462Z,22.50
2022-09-16T13:51:20.273Z,22.55
2022-09-16T13:53:49.936Z,22.56
2022-09-16T13:56:34.970Z,22.63
2022-09-16T13:59:26.972Z,22.66
2022-09-16T14:02:27.445Z,22.76
2022-09-16T14:05:20.910Z,22.74
2022-09-16T14:08:12.059Z,22.85
2022-09-16T14:11:10.117Z,22.90
2022-09-16T14:13:45.408Z,22.36
2022-09-16T14:16:21.122Z,22.58
2022-09-16T14:18:56.396Z,22.67
2022-09-16T14:21:24.625Z,22.59
2022-09-16T14:23:51.958Z,22.37
2022-09-16T14:26:23.879Z,22.38
2022-09-16T14:29:01.934Z,22.39
2022-09-16T14:31:30.975Z,22.10
2022-09-16T14:34:04.635Z,22.09
2022-09-16T14:36:36.192Z,21.90
2022-09-16T14:39:06.730Z,21.96
2022-09-16T14:41:52.363Z,22.08
2022-09-16T14:44:19.935Z,22.06
2022-09-16T14:46:50.708Z,22.00
2022-09-16T14:49:18.737Z,21.99
2022-09-16T14:52:23.119Z,21.96
2022-09-16T14:54:51.819Z,21.96
2022-09-16T14:57:22.976Z,22.06
2022-09-16T14:59:52.393Z,21.90
2022-09-16T15:02:42.559Z,21.91
2022-09-16T15:05:38.633Z,21.79
2022-09-16T15:08:27.525Z,21.77
2022-09-16T15:10:57.715Z,21.70
2022-09-16T15:13:35.710Z,21.65
2022-09-16T15:16:12.186Z,21.44
2022-09-16T15:18:43.762Z,21.45
2022-09-16T15:21:23.809Z,21.48
2022-09-16T15:23:52.920Z,21.39
2022-09-16T15:26:26.067Z,21.42
2022-09-16T15:28:59.179Z,21.43
2022-09-16T15:31:40.627Z,21.40
2022-09-16T15:34:23.779Z,21.19
2022-09-16T15:36:53.020Z,21.27
2022-09-16T15:39:30.517Z,21.14
2022-09-16T15:42:13.631Z,21.20
2022-09-16T15:44:48.781Z,21.07
2022-09-16T15:47:29.002Z,20.96
2022-09-16T15:50:12.423Z,21.11
2022-09-16T15:53:01.651Z,21.00
2022-09-16T15:55:36.369Z,20.97
2022-09-16T15:58:33.673Z,20.94
2022-09-16T16:01:10.389Z,20.98
2022-09-16T16:03:50.004Z,21.00
2022-09-16T16:06:17.376Z,20.78
2022-09-16T16:08:48.249Z,20.87
2022-09-16T16:11:20.624Z,20.88
2022-09-16T16:13:51.438Z,20.71
2022-09-16T16:16:19.073Z,20.64
2022-09-16T16:18:46.664Z,20.71
2022-09-16T16:21:16.385Z,20.75
2022-09-16T16:23:43.849Z,20.74
2022-09-16T16:26:11.526Z,20.44
2022-09-16T16:28:39.108Z,20.54
2022-09-16T16:31:11.620Z,20.50
2022-09-16T16:33:44.917Z,20.58
2022-09-16T16:36:14.169Z,20.59
2022-09-16T16:38:41.815Z,20.55
2022-09-16T16:41:09.338Z,20.54
2022-09-16T16:43:36.648Z,20.63
2022-09-16T16:46:04.647Z,20.62
2022-09-16T16:48:31.993Z,20.60
2022-09-16T16:51:02.296Z,20.53
2022-09-16T16:53:30.426Z,20.59
2022-09-16T16:56:04.623Z,20.45
2022-09-16T16:58:33.027Z,20.55
2022-09-16T17:01:10.040Z,20.48
2022-09-16T17:03:37.639Z,20.61
2022-09-16T17:06:05.238Z,20.47
2022-09-16T17:08:33.281Z,20.52
2022-09-16T17:11:16.373Z,20.52
2022-09-16T17:13:48.530Z,20.38
2022-09-16T17:16:19.627Z,20.34
2022-09-16T17:18:47.589Z,20.44
2022-09-16T17:21:23.939Z,20.38
2022-09-16T17:23:52.455Z,20.33
2022-09-16T17:26:21.112Z,20.37
2022-09-16T17:28:50.718Z,20.40
2022-09-16T17:31:21.140Z,20.32
2022-09-16T17:33:48.663Z,20.30
2022-09-16T17:36:19.560Z,20.28
2022-09-16T17:38:47.161Z,20.24
2022-09-16T17:41:17.015Z,20.27
2022-09-16T17:43:44.388Z,20.27
2022-09-16T17:46:15.912Z,20.23
2022-09-16T17:48:43.622Z,20.18
2022-09-16T17:51:11.210Z,20.14
2022-09-16T17:53:38.813Z,20.07
2022-09-16T17:56:08.739Z,20.09
2022-09-16T17:58:37.065Z,20.07
2022-09-16T18:01:05.807Z,20.04
2022-09-16T18:03:33.486Z,20.04
2022-09-16T18:06:12.925Z,19.91
2022-09-16T18:08:41.157Z,19.97
2022-09-16T18:11:10.146Z,19.92
2022-09-16T18:13:37.794Z,20.01
2022-09-16T18:16:07.959Z,20.00
2022-09-16T18:18:36.741Z,19.93
2022-09-16T18:21:05.522Z,19.97
2022-09-16T18:23:33.636Z,19.95
2022-09-16T18:26:06.136Z,19.88
2022-09-16T18:29:05.268Z,19.89
2022-09-16T18:31:28.878Z,19.93
2022-09-16T18:33:56.906Z,19.89
2022-09-16T18:36:25.933Z,19.83
2022-09-16T18:38:54.623Z,19.81
2022-09-16T18:41:24.483Z,19.85
2022-09-16T18:43:57.358Z,19.83
2022-09-16T18:46:26.870Z,19.80
2022-09-16T18:48:54.929Z,19.86
2022-09-16T18:51:23.301Z,19.86
2022-09-16T18:53:53.140Z,19.82
2022-09-16T18:56:22.142Z,19.86
2022-09-16T18:59:10.005Z,19.85
2022-09-16T19:01:39.194Z,19.73
2022-09-16T19:04:09.471Z,19.63
2022-09-16T19:06:39.123Z,19.65
2022-09-16T19:09:08.624Z,19.65
2022-09-16T19:11:36.587Z,19.57
2022-09-16T19:14:17.810Z,19.55
2022-09-16T19:16:45.889Z,19.52
2022-09-16T19:19:14.857Z,19.38
2022-09-16T19:21:43.292Z,19.38
2022-09-16T19:24:16.286Z,19.29
2022-09-16T19:26:44.502Z,19.35
2022-09-16T19:29:13.330Z,19.42
2022-09-16T19:31:42.135Z,19.39
2022-09-16T19:34:09.815Z,19.36
2022-09-16T19:36:37.808Z,19.31
2022-09-16T19:39:06.209Z,19.33
2022-09-16T19:41:35.133Z,19.40
2022-09-16T19:44:05.378Z,19.42
2022-09-16T19:46:34.998Z,19.41
2022-09-16T19:49:05.388Z,19.35
2022-09-16T19:51:33.144Z,19.38
2022-09-16T19:54:01.174Z,19.35
2022-09-16T19:56:31.420Z,19.30
2022-09-16T19:58:59.287Z,19.32
2022-09-16T20:01:28.691Z,19.35
2022-09-16T20:03:56.578Z,19.27
2022-09-16T20:06:30.735Z,19.34
2022-09-16T20:09:00.047Z,19.27
2022-09-16T20:11:31.412Z,19.19
2022-09-16T20:14:01.085Z,19.38
2022-09-16T20:16:31.704Z,19.28
2022-09-16T20:18:59.587Z,19.23
2022-09-16T20:21:27.271Z,19.18
2022-09-16T20:23:54.841Z,19.17
2022-09-16T20:26:22.887Z,19.21
2022-09-16T20:28:51.912Z,19.12
2022-09-16T20:31:22.186Z,19.23
2022-09-16T20:33:50.133Z,19.22
2022-09-16T20:36:20.571Z,19.20
2022-09-16T20:38:48.587Z,19.25
2022-09-16T20:41:17.487Z,19.29
2022-09-16T20:43:45.977Z,19.22
2022-09-16T20:46:15.531Z,19.13
2022-09-16T20:48:44.154Z,19.10
2022-09-16T20:51:14.530Z,19.18
2022-09-16T20:53:43.011Z,19.21
2022-09-16T20:56:15.389Z,19.13
2022-09-16T20:58:43.253Z,19.16
2022-09-16T21:01:16.196Z,19.08
2022-09-16T21:03:44.500Z,19.15
2022-09-16T21:06:14.595Z,19.05
2022-09-16T21:08:42.677Z,19.07
2022-09-16T21:11:15.481Z,19.08
2022-09-16T21:13:45.107Z,18.92
2022-09-16T21:16:15.548Z,18.84
2022-09-16T21:18:43.426Z,18.82
2022-09-16T21:21:15.194Z,18.82
2022-09-16T21:23:43.238Z,18.67
2022-09-16T21:26:25.172Z,18.78
2022-09-16T21:28:55.167Z,18.73
2022-09-16T21:31:23.383Z,18.62
2022-09-16T21:33:51.939Z,18.62
2022-09-16T21:36:21.299Z,18.43
2022-09-16T21:38:48.760Z,18.21
2022-09-16T21:41:21.288Z,18.26
2022-09-16T21:43:51.316Z,18.39
2022-09-16T21:46:20.628Z,18.35
2022-09-16T21:48:48.973Z,18.47
2022-09-16T21:51:18.699Z,18.48
2022-09-16T21:53:47.025Z,18.63
2022-09-16T21:56:19.876Z,18.71
2022-09-16T21:58:49.431Z,18.61
2022-09-16T22:01:20.001Z,18.62
2022-09-16T22:03:53.475Z,18.59
2022-09-16T22:06:22.295Z,18.42
2022-09-16T22:08:50.145Z,18.54
2022-09-16T22:11:18.893Z,18.59
2022-09-16T22:13:46.653Z,18.57
2022-09-16T22:16:26.610Z,18.50
2022-09-16T22:18:57.228Z,18.50
2022-09-16T22:21:27.202Z,18.36
2022-09-16T22:23:59.080Z,18.44
2022-09-16T22:26:27.192Z,18.36
2022-09-16T22:28:54.577Z,18.34
2022-09-16T22:31:24.709Z,18.30
2022-09-16T22:33:53.626Z,18.47
2022-09-16T22:36:23.651Z,18.19
2022-09-16T22:38:55.944Z,18.15
2022-09-16T22:41:24.589Z,18.24
2022-09-16T22:43:53.467Z,18.07
2022-09-16T22:46:26.057Z,18.13
2022-09-16T22:48:55.571Z,18.09
2022-09-16T22:51:23.172Z,18.18
2022-09-16T22:53:50.840Z,18.19
2022-09-16T22:56:21.071Z,18.11
2022-09-16T22:58:52.775Z,18.09
2022-09-16T23:01:50.950Z,18.13
2022-09-16T23:04:19.024Z,18.17
2022-09-16T23:06:47.298Z,18.18
2022-09-16T23:09:19.935Z,18.26
2022-09-16T23:11:47.483Z,18.35
2022-09-16T23:14:21.599Z,18.24
2022-09-16T23:16:49.179Z,18.32
2022-09-16T23:19:16.881Z,18.27
2022-09-16T23:21:44.203Z,18.27
2022-09-16T23:24:15.385Z,18.25
2022-09-16T23:26:42.977Z,18.27
2022-09-16T23:29:11.927Z,18.29
2022-09-16T23:31:41.590Z,18.27
2022-09-16T23:34:19.402Z,18.16
2022-09-16T23:36:47.658Z,18.07
2022-09-16T23:39:15.566Z,17.89
2022-09-16T23:41:43.555Z,18.03
2022-09-16T23:44:15.596Z,18.02
2022-09-16T23:46:43.205Z,17.95
2022-09-16T23:49:11.426Z,18.07
2022-09-16T23:51:38.962Z,18.06
2022-09-16T23:54:06.277Z,18.06
2022-09-16T23:56:33.901Z,18.03
2022-09-16T23:59:01.340Z,17.82
